sensor_id;sensor_type;location;lat;lon;timestamp;temperature;humidity
21493;DHT22;10908;50.690;4.400;2023-04-24T00:00:47;9.80;83.60
21493;DHT22;10908;50.690;4.400;2023-04-24T00:03:14;9.70;83.70
21493;DHT22;10908;50.690;4.400;2023-04-24T00:05:40;9.70;83.80
21493;DHT22;10908;50.690;4.400;2023-04-24T00:08:06;9.70;83.80
21493;DHT22;10908;50.690;4.400;2023-04-24T00:10:32;9.70;84.00
21493;DHT22;10908;50.690;4.400;2023-04-24T00:12:57;9.70;83.90
21493;DHT22;10908;50.690;4.400;2023-04-24T00:15:24;9.70;83.80
21493;DHT22;10908;50.690;4.400;2023-04-24T00:17:49;9.60;83.90
21493;DHT22;10908;50.690;4.400;2023-04-24T00:20:15;9.70;83.90
21493;DHT22;10908;50.690;4.400;2023-04-24T00:22:41;9.60;83.80
21493;DHT22;10908;50.690;4.400;2023-04-24T00:25:07;9.60;83.90
21493;DHT22;10908;50.690;4.400;2023-04-24T00:27:32;9.50;84.10
21493;DHT22;10908;50.690;4.400;2023-04-24T00:29:58;9.40;84.50
21493;DHT22;10908;50.690;4.400;2023-04-24T00:32:24;9.40;84.70
21493;DHT22;10908;50.690;4.400;2023-04-24T00:34:50;9.40;84.90
21493;DHT22;10908;50.690;4.400;2023-04-24T00:37:15;9.40;85.00
21493;DHT22;10908;50.690;4.400;2023-04-24T00:39:41;9.40;85.00
21493;DHT22;10908;50.690;4.400;2023-04-24T00:42:06;9.40;85.00
21493;DHT22;10908;50.690;4.400;2023-04-24T00:44:33;9.40;84.90
21493;DHT22;10908;50.690;4.400;2023-04-24T00:47:01;9.50;84.90
21493;DHT22;10908;50.690;4.400;2023-04-24T00:49:26;9.40;84.90
21493;DHT22;10908;50.690;4.400;2023-04-24T00:51:52;9.50;84.90
21493;DHT22;10908;50.690;4.400;2023-04-24T00:54:19;9.40;84.90
21493;DHT22;10908;50.690;4.400;2023-04-24T00:56:46;9.40;84.90
21493;DHT22;10908;50.690;4.400;2023-04-24T00:59:12;9.40;84.90
21493;DHT22;10908;50.690;4.400;2023-04-24T01:01:39;9.50;85.00
21493;DHT22;10908;50.690;4.400;2023-04-24T15:55:13;12.30;61.80
21493;DHT22;10908;50.690;4.400;2023-04-24T15:57:39;12.20;60.20
21493;DHT22;10908;50.690;4.400;2023-04-24T16:00:05;12.20;60.90
21493;DHT22;10908;50.690;4.400;2023-04-24T16:02:38;12.30;61.90
21493;DHT22;10908;50.690;4.400;2023-04-24T16:05:05;12.30;60.70
21493;DHT22;10908;50.690;4.400;2023-04-24T16:07:33;12.20;60.90
21493;DHT22;10908;50.690;4.400;2023-04-24T16:09:59;12.10;61.00
21493;DHT22;10908;50.690;4.400;2023-04-24T16:12:25;12.10;60.70
21493;DHT22;10908;50.690;4.400;2023-04-24T16:14:52;12.00;60.60
21493;DHT22;10908;50.690;4.400;2023-04-24T16:17:19;12.10;60.40
21493;DHT22;10908;50.690;4.400;2023-04-24T16:19:45;12.00;60.40
21493;DHT22;10908;50.690;4.400;2023-04-24T16:22:10;12.00;60.10
21493;DHT22;10908;50.690;4.400;2023-04-24T16:24:36;11.90;60.70
21493;DHT22;10908;50.690;4.400;2023-04-24T16:27:02;12.00;60.50
21493;DHT22;10908;50.690;4.400;2023-04-24T16:29:29;12.10;60.70
21493;DHT22;10908;50.690;4.400;2023-04-24T16:31:55;12.20;60.20
21493;DHT22;10908;50.690;4.400;2023-04-24T16:34:41;12.20;60.60
21493;DHT22;10908;50.690;4.400;2023-04-24T16:37:16;12.30;60.40
21493;DHT22;10908;50.690;4.400;2023-04-24T16:39:42;12.30;60.20
21493;DHT22;10908;50.690;4.400;2023-04-24T16:42:10;12.30;59.60
21493;DHT22;10908;50.690;4.400;2023-04-24T16:44:38;12.40;59.60
21493;DHT22;10908;50.690;4.400;2023-04-24T16:47:05;12.60;59.60
21493;DHT22;10908;50.690;4.400;2023-04-24T16:49:32;12.60;59.10
21493;DHT22;10908;50.690;4.400;2023-04-24T16:51:58;12.40;58.50
21493;DHT22;10908;50.690;4.400;2023-04-24T16:54:24;12.50;58.20
21493;DHT22;10908;50.690;4.400;2023-04-24T16:56:51;12.40;59.10
21493;DHT22;10908;50.690;4.400;2023-04-24T16:59:17;12.40;58.20
21493;DHT22;10908;50.690;4.400;2023-04-24T17:01:42;12.30;58.50
21493;DHT22;10908;50.690;4.400;2023-04-24T17:04:08;12.40;58.90
21493;DHT22;10908;50.690;4.400;2023-04-24T17:06:34;12.40;58.20
21493;DHT22;10908;50.690;4.400;2023-04-24T17:09:00;12.30;58.50
21493;DHT22;10908;50.690;4.400;2023-04-24T17:11:26;12.30;59.30
21493;DHT22;10908;50.690;4.400;2023-04-24T17:13:52;12.30;58.60
21493;DHT22;10908;50.690;4.400;2023-04-24T17:16:18;12.30;58.60
21493;DHT22;10908;50.690;4.400;2023-04-24T17:18:44;12.30;58.90
21493;DHT22;10908;50.690;4.400;2023-04-24T17:21:10;12.30;59.00
21493;DHT22;10908;50.690;4.400;2023-04-24T17:23:36;12.30;58.40
21493;DHT22;10908;50.690;4.400;2023-04-24T17:26:02;12.30;57.60
21493;DHT22;10908;50.690;4.400;2023-04-24T17:28:29;12.20;57.90
21493;DHT22;10908;50.690;4.400;2023-04-24T17:30:55;12.20;57.10
21493;DHT22;10908;50.690;4.400;2023-04-24T17:33:28;12.20;56.90
21493;DHT22;10908;50.690;4.400;2023-04-24T17:35:55;12.10;57.30
21493;DHT22;10908;50.690;4.400;2023-04-24T17:38:23;12.10;58.20
21493;DHT22;10908;50.690;4.400;2023-04-24T17:40:50;12.10;58.50
21493;DHT22;10908;50.690;4.400;2023-04-24T17:43:18;12.00;58.90
21493;DHT22;10908;50.690;4.400;2023-04-24T17:45:45;12.10;59.10
21493;DHT22;10908;50.690;4.400;2023-04-24T17:48:12;12.00;59.30
21493;DHT22;10908;50.690;4.400;2023-04-24T17:50:38;12.10;59.60
21493;DHT22;10908;50.690;4.400;2023-04-24T17:53:04;12.10;59.60
21493;DHT22;10908;50.690;4.400;2023-04-24T17:55:29;12.20;59.50
21493;DHT22;10908;50.690;4.400;2023-04-24T17:57:55;12.30;59.10
21493;DHT22;10908;50.690;4.400;2023-04-24T18:00:21;12.00;59.20
21493;DHT22;10908;50.690;4.400;2023-04-24T18:02:48;11.90;60.20
21493;DHT22;10908;50.690;4.400;2023-04-24T18:05:17;11.90;60.30
21493;DHT22;10908;50.690;4.400;2023-04-24T18:07:45;11.90;59.80
21493;DHT22;10908;50.690;4.400;2023-04-24T18:10:11;11.80;60.90
21493;DHT22;10908;50.690;4.400;2023-04-24T18:12:37;11.80;61.00
21493;DHT22;10908;50.690;4.400;2023-04-24T18:15:03;11.90;60.40
21493;DHT22;10908;50.690;4.400;2023-04-24T18:17:29;11.80;60.60
21493;DHT22;10908;50.690;4.400;2023-04-24T18:19:55;11.80;60.30
21493;DHT22;10908;50.690;4.400;2023-04-24T18:22:21;11.80;60.50
21493;DHT22;10908;50.690;4.400;2023-04-24T18:24:47;11.80;60.60
21493;DHT22;10908;50.690;4.400;2023-04-24T18:27:12;11.80;60.80
21493;DHT22;10908;50.690;4.400;2023-04-24T18:29:38;11.70;60.70
21493;DHT22;10908;50.690;4.400;2023-04-24T18:32:04;11.60;61.00
21493;DHT22;10908;50.690;4.400;2023-04-24T18:34:33;11.60;60.50
21493;DHT22;10908;50.690;4.400;2023-04-24T18:37:00;11.60;61.10
21493;DHT22;10908;50.690;4.400;2023-04-24T18:39:25;11.40;62.10
21493;DHT22;10908;50.690;4.400;2023-04-24T18:41:51;11.50;61.70
21493;DHT22;10908;50.690;4.400;2023-04-24T18:44:17;11.40;62.10
21493;DHT22;10908;50.690;4.400;2023-04-24T18:46:44;11.30;63.20
21493;DHT22;10908;50.690;4.400;2023-04-24T18:49:10;11.40;63.30
21493;DHT22;10908;50.690;4.400;2023-04-24T18:51:35;11.30;63.50
21493;DHT22;10908;50.690;4.400;2023-04-24T18:54:02;11.20;63.30
21493;DHT22;10908;50.690;4.400;2023-04-24T18:56:27;11.00;64.80
21493;DHT22;10908;50.690;4.400;2023-04-24T18:58:53;11.20;64.30
21493;DHT22;10908;50.690;4.400;2023-04-24T19:01:20;11.10;65.40
21493;DHT22;10908;50.690;4.400;2023-04-24T19:03:46;10.80;67.40
21493;DHT22;10908;50.690;4.400;2023-04-24T19:06:12;10.70;68.10
21493;DHT22;10908;50.690;4.400;2023-04-24T19:08:37;10.70;68.90
21493;DHT22;10908;50.690;4.400;2023-04-24T19:11:04;10.70;68.90
21493;DHT22;10908;50.690;4.400;2023-04-24T19:13:30;10.90;68.40
21493;DHT22;10908;50.690;4.400;2023-04-24T19:15:56;10.90;68.40
21493;DHT22;10908;50.690;4.400;2023-04-24T19:18:21;11.30;66.40
21493;DHT22;10908;50.690;4.400;2023-04-24T19:20:47;11.00;67.50
21493;DHT22;10908;50.690;4.400;2023-04-24T19:23:13;10.80;70.60
21493;DHT22;10908;50.690;4.400;2023-04-24T19:25:38;10.60;71.90
21493;DHT22;10908;50.690;4.400;2023-04-24T19:28:04;10.50;72.40
21493;DHT22;10908;50.690;4.400;2023-04-24T19:30:31;10.30;72.70
21493;DHT22;10908;50.690;4.400;2023-04-24T19:32:57;10.30;73.10
21493;DHT22;10908;50.690;4.400;2023-04-24T19:35:22;10.30;73.20
21493;DHT22;10908;50.690;4.400;2023-04-24T19:37:48;10.50;71.90
21493;DHT22;10908;50.690;4.400;2023-04-24T19:40:14;10.60;70.20
21493;DHT22;10908;50.690;4.400;2023-04-24T19:42:39;10.60;69.70
21493;DHT22;10908;50.690;4.400;2023-04-24T19:45:06;10.60;69.50
21493;DHT22;10908;50.690;4.400;2023-04-24T19:47:32;10.70;70.20
21493;DHT22;10908;50.690;4.400;2023-04-24T19:49:57;10.80;70.00
21493;DHT22;10908;50.690;4.400;2023-04-24T19:52:24;10.80;70.40
21493;DHT22;10908;50.690;4.400;2023-04-24T19:54:50;10.90;70.00
21493;DHT22;10908;50.690;4.400;2023-04-24T19:57:16;11.00;69.90
21493;DHT22;10908;50.690;4.400;2023-04-24T19:59:42;11.10;69.90
21493;DHT22;10908;50.690;4.400;2023-04-24T20:02:08;10.90;71.20
21493;DHT22;10908;50.690;4.400;2023-04-24T20:04:34;10.80;71.60
21493;DHT22;10908;50.690;4.400;2023-04-24T20:07:00;10.80;72.00
21493;DHT22;10908;50.690;4.400;2023-04-24T20:09:26;10.70;72.00
21493;DHT22;10908;50.690;4.400;2023-04-24T20:11:52;10.80;71.90
21493;DHT22;10908;50.690;4.400;2023-04-24T20:14:18;10.70;72.90
21493;DHT22;10908;50.690;4.400;2023-04-24T20:16:44;10.70;73.90
21493;DHT22;10908;50.690;4.400;2023-04-24T20:19:10;10.90;72.70
21493;DHT22;10908;50.690;4.400;2023-04-24T20:21:36;10.80;73.50
21493;DHT22;10908;50.690;4.400;2023-04-24T20:24:02;10.60;73.90
21493;DHT22;10908;50.690;4.400;2023-04-24T20:26:28;10.30;74.20
21493;DHT22;10908;50.690;4.400;2023-04-24T20:28:54;10.00;75.30
21493;DHT22;10908;50.690;4.400;2023-04-24T20:31:20;9.90;77.20
21493;DHT22;10908;50.690;4.400;2023-04-24T20:33:45;9.80;78.70
21493;DHT22;10908;50.690;4.400;2023-04-24T20:36:11;9.70;78.50
21493;DHT22;10908;50.690;4.400;2023-04-24T20:38:37;9.70;80.00
21493;DHT22;10908;50.690;4.400;2023-04-24T20:41:02;9.70;80.50
21493;DHT22;10908;50.690;4.400;2023-04-24T20:43:28;9.60;81.10
21493;DHT22;10908;50.690;4.400;2023-04-24T20:45:54;9.50;81.90
21493;DHT22;10908;50.690;4.400;2023-04-24T20:48:20;9.60;82.50
21493;DHT22;10908;50.690;4.400;2023-04-24T20:50:57;9.60;82.30
21493;DHT22;10908;50.690;4.400;2023-04-24T20:53:23;9.50;82.00
21493;DHT22;10908;50.690;4.400;2023-04-24T20:55:48;9.30;81.90
21493;DHT22;10908;50.690;4.400;2023-04-24T20:58:15;9.40;82.30
21493;DHT22;10908;50.690;4.400;2023-04-24T21:00:43;9.40;81.20
21493;DHT22;10908;50.690;4.400;2023-04-24T21:03:09;9.60;80.90
21493;DHT22;10908;50.690;4.400;2023-04-24T21:05:35;9.70;80.70
21493;DHT22;10908;50.690;4.400;2023-04-24T21:08:01;9.50;81.10
21493;DHT22;10908;50.690;4.400;2023-04-24T21:10:26;9.50;81.40
21493;DHT22;10908;50.690;4.400;2023-04-24T21:12:53;9.60;81.20
21493;DHT22;10908;50.690;4.400;2023-04-24T21:15:18;9.70;80.50
21493;DHT22;10908;50.690;4.400;2023-04-24T21:17:45;9.70;79.90
21493;DHT22;10908;50.690;4.400;2023-04-24T21:20:11;9.80;79.90
21493;DHT22;10908;50.690;4.400;2023-04-24T21:22:36;9.90;79.10
21493;DHT22;10908;50.690;4.400;2023-04-24T21:25:03;9.80;78.20
21493;DHT22;10908;50.690;4.400;2023-04-24T21:27:29;9.60;78.50
21493;DHT22;10908;50.690;4.400;2023-04-24T21:29:55;9.50;78.90
21493;DHT22;10908;50.690;4.400;2023-04-24T21:32:20;9.60;78.50
21493;DHT22;10908;50.690;4.400;2023-04-24T21:34:46;9.70;78.60
21493;DHT22;10908;50.690;4.400;2023-04-24T21:37:12;9.60;78.30
21493;DHT22;10908;50.690;4.400;2023-04-24T21:39:40;9.40;79.00
21493;DHT22;10908;50.690;4.400;2023-04-24T21:42:07;9.20;79.90
21493;DHT22;10908;50.690;4.400;2023-04-24T21:44:32;9.20;80.30
21493;DHT22;10908;50.690;4.400;2023-04-24T21:46:58;9.40;80.10
21493;DHT22;10908;50.690;4.400;2023-04-24T21:49:24;9.70;79.60
21493;DHT22;10908;50.690;4.400;2023-04-24T21:51:49;10.00;78.10
21493;DHT22;10908;50.690;4.400;2023-04-24T21:54:15;10.00;77.90
21493;DHT22;10908;50.690;4.400;2023-04-24T21:56:41;9.90;78.50
21493;DHT22;10908;50.690;4.400;2023-04-24T21:59:08;9.70;79.10
21493;DHT22;10908;50.690;4.400;2023-04-24T22:01:34;9.40;79.60
21493;DHT22;10908;50.690;4.400;2023-04-24T22:04:00;9.20;80.20
21493;DHT22;10908;50.690;4.400;2023-04-24T22:06:29;8.90;81.20
21493;DHT22;10908;50.690;4.400;2023-04-24T22:08:54;8.90;81.70
21493;DHT22;10908;50.690;4.400;2023-04-24T22:11:20;9.00;82.00
21493;DHT22;10908;50.690;4.400;2023-04-24T22:13:46;9.00;82.30
21493;DHT22;10908;50.690;4.400;2023-04-24T22:16:12;9.00;82.50
21493;DHT22;10908;50.690;4.400;2023-04-24T22:18:38;8.90;82.20
21493;DHT22;10908;50.690;4.400;2023-04-24T22:21:04;8.90;82.70
21493;DHT22;10908;50.690;4.400;2023-04-24T22:23:30;9.10;82.80
21493;DHT22;10908;50.690;4.400;2023-04-24T22:25:56;9.10;82.30
21493;DHT22;10908;50.690;4.400;2023-04-24T22:28:21;9.00;81.80
21493;DHT22;10908;50.690;4.400;2023-04-24T22:30:47;8.90;82.40
21493;DHT22;10908;50.690;4.400;2023-04-24T22:33:13;8.90;82.40
21493;DHT22;10908;50.690;4.400;2023-04-24T22:35:38;8.80;83.10
21493;DHT22;10908;50.690;4.400;2023-04-24T22:38:04;9.00;83.30
21493;DHT22;10908;50.690;4.400;2023-04-24T22:40:30;9.00;82.80
21493;DHT22;10908;50.690;4.400;2023-04-24T22:42:55;8.80;82.90
21493;DHT22;10908;50.690;4.400;2023-04-24T22:45:21;8.80;83.30
21493;DHT22;10908;50.690;4.400;2023-04-24T22:47:50;8.90;83.30
21493;DHT22;10908;50.690;4.400;2023-04-24T22:50:16;8.90;83.40
21493;DHT22;10908;50.690;4.400;2023-04-24T22:52:42;9.00;83.10
21493;DHT22;10908;50.690;4.400;2023-04-24T22:55:09;8.90;83.00
21493;DHT22;10908;50.690;4.400;2023-04-24T22:57:35;9.00;83.40
21493;DHT22;10908;50.690;4.400;2023-04-24T23:00:05;8.90;82.50
21493;DHT22;10908;50.690;4.400;2023-04-24T23:02:37;9.00;81.80
21493;DHT22;10908;50.690;4.400;2023-04-24T23:05:03;8.80;81.00
21493;DHT22;10908;50.690;4.400;2023-04-24T23:07:29;9.00;80.70
21493;DHT22;10908;50.690;4.400;2023-04-24T23:09:54;9.00;80.40
21493;DHT22;10908;50.690;4.400;2023-04-24T23:12:20;9.00;79.80
21493;DHT22;10908;50.690;4.400;2023-04-24T23:14:46;8.90;79.90
21493;DHT22;10908;50.690;4.400;2023-04-24T23:17:11;8.90;80.40
21493;DHT22;10908;50.690;4.400;2023-04-24T23:19:37;8.70;80.00
21493;DHT22;10908;50.690;4.400;2023-04-24T23:22:03;8.80;80.60
21493;DHT22;10908;50.690;4.400;2023-04-24T23:24:28;8.80;80.50
21493;DHT22;10908;50.690;4.400;2023-04-24T23:26:54;8.90;80.10
21493;DHT22;10908;50.690;4.400;2023-04-24T23:29:20;9.20;79.50
21493;DHT22;10908;50.690;4.400;2023-04-24T23:31:47;9.20;78.70
21493;DHT22;10908;50.690;4.400;2023-04-24T23:34:13;9.20;78.40
21493;DHT22;10908;50.690;4.400;2023-04-24T23:36:42;9.10;78.10
21493;DHT22;10908;50.690;4.400;2023-04-24T23:39:08;9.00;78.30
21493;DHT22;10908;50.690;4.400;2023-04-24T23:41:34;9.00;78.20
21493;DHT22;10908;50.690;4.400;2023-04-24T23:43:59;8.90;77.40
21493;DHT22;10908;50.690;4.400;2023-04-24T23:46:25;8.90;77.10
21493;DHT22;10908;50.690;4.400;2023-04-24T23:48:51;8.90;76.40
21493;DHT22;10908;50.690;4.400;2023-04-24T23:51:16;8.90;76.10
21493;DHT22;10908;50.690;4.400;2023-04-24T23:53:42;8.80;76.70
21493;DHT22;10908;50.690;4.400;2023-04-24T23:56:08;8.90;76.00
21493;DHT22;10908;50.690;4.400;2023-04-24T23:58:33;8.80;76.50
